D/T METAR WX W/DIR W/SPE G/SPE TEMP DEWP
9/12/19 11:50 EGQK 091150Z AUTO 30013KT 9999 BKN050/// 05/01 Q1012 WNW (300°) 15.0mph 5°C 1°C
9/12/19 10:50 EGQK 091050Z AUTO 28010KT 9999 BKN060/// 04/01 Q1011 W (280°) 11.5mph 4°C 1°C
9/12/19 09:50 EGQK 090950Z AUTO 29014KT 9999 BKN050/// 04/01 Q1009 WNW (290°) 16.1mph 4°C 1°C
9/12/19 08:50 EGQK 090850Z AUTO 30015KT 9999 SCT050/// 04/01 Q1007 WNW (300°) 17.3mph 4°C 1°C
9/12/19 07:50 EGQK 090750Z AUTO 29013KT 9999 FEW050/// 03/01 Q1005 RERA WNW (290°) 15.0mph 3°C 1°C
9/12/19 06:50 EGQK 090650Z AUTO 32021G31KT 8000 -RA SCT027/// BKN035/// 04/02 Q1003 -RA NW (320°) 24.2mph 35.7mph 4°C 2°C
9/12/19 05:50 EGQK 090550Z AUTO 36021KT 9999 SCT022/// 05/02 Q1001 N (360°) 24.2mph 5°C 2°C
9/12/19 04:50 EGQK 090450Z AUTO 34020KT 9999 FEW031/// BKN044/// 05/02 Q0998 RERA NNW (340°) 23.0mph 5°C 2°C
9/12/19 03:50 EGQK 090350Z AUTO 35024KT 9999 FEW050/// SCT220/// 05/02 Q0995 N (350°) 27.6mph 5°C 2°C
9/12/19 02:50 EGQK 090250Z AUTO 35022G32KT 9999 FEW040/// SCT120/// 06/03 Q0993 RERA N (350°) 25.3mph 36.8mph 6°C 3°C
9/12/19 01:50 EGQK 090150Z AUTO 35018KT 9999 FEW032/// SCT037/// BKN070/// 06/03 Q0990 RERA N (350°) 20.7mph 6°C 3°C
9/12/19 00:50 EGQK 090050Z AUTO 35022KT 9999 SCT023/// SCT120/// 06/04 Q0987 RERA N (350°) 25.3mph 6°C 4°C
8/12/19 23:50 EGQK 082350Z AUTO 36025KT 9999 -RA FEW022/// SCT031/// BKN044/// 06/04 Q0984 -RA N (360°) 28.8mph 6°C 4°C
8/12/19 22:50 EGQK 082250Z AUTO 30020KT 9999 -RA BKN018/// SCT031/// 06/04 Q0981 -RA WNW (300°) 23.0mph 6°C 4°C
8/12/19 21:50 EGQK 082150Z AUTO 26016KT 9999 BKN021/// SCT031/// 05/04 Q0978 RERA W (260°) 18.4mph 5°C 4°C
8/12/19 20:50 EGQK 082050Z AUTO 25011KT 9999 -RA SCT021/// SCT080/// 05/03 Q0977 -RA WSW (250°) 12.7mph 5°C 3°C
8/12/19 19:50 EGQK 081950Z AUTO 24009KT 9999 -RA SCT025/// BKN050/// 05/04 Q0975 -RA WSW (240°) 10.4mph 5°C 4°C
8/12/19 18:50 EGQK 081850Z AUTO 24014KT 9999 -RA BKN050/// SCT130/// 05/03 Q0974 -RA WSW (240°) 16.1mph 5°C 3°C
8/12/19 17:50 EGQK 081750Z AUTO 22010KT 9999 FEW120/// 05/03 Q0973 SW (220°) 11.5mph 5°C 3°C
8/12/19 16:50 EGQK 081650Z AUTO 22018G31KT 9999 FEW021/// 05/03 Q0972 RERA SW (220°) 20.7mph 35.7mph 5°C 3°C
8/12/19 15:50 EGQK 081550Z AUTO 22015KT 9999 -RA SCT033/// 05/03 Q0972 -RA SW (220°) 17.3mph 5°C 3°C
8/12/19 14:50 EGQK 081450Z AUTO 21013KT 9999 -RA FEW020/// BKN090/// 05/04 Q0972 -RA SSW (210°) 15.0mph 5°C 4°C
8/12/19 13:50 EGQK 081350Z AUTO 21012KT 9999 -RA FEW033/// BKN041/// 05/03 Q0973 -RA SSW (210°) 13.8mph 5°C 3°C
8/12/19 12:50 EGQK 081250Z AUTO 22017KT 9999 -RA FEW024/// SCT029/// 05/03 Q0973 -RA SW (220°) 19.6mph 5°C 3°C
8/12/19 11:50 EGQK 081150Z AUTO 22013KT 9999 -RA FEW027/// SCT034/// 06/03 Q0974 -RA SW (220°) 15.0mph 6°C 3°C
8/12/19 10:50 EGQK 081050Z AUTO 22016KT 9999 -RA FEW029/// 06/02 Q0975 -RA SW (220°) 18.4mph 6°C 2°C
8/12/19 09:50 EGQK 080950Z AUTO 22012KT 9999 FEW060/// 05/02 Q0975 RERA SW (220°) 13.8mph 5°C 2°C
8/12/19 08:50 EGQK 080850Z AUTO 22016KT 9999 SCT160/// 05/02 Q0976 RERA SW (220°) 18.4mph 5°C 2°C
8/12/19 07:50 EGQK 080750Z AUTO 22014KT 9999 SCT046/// 06/02 Q0976 RERA SW (220°) 16.1mph 6°C 2°C
8/12/19 06:50 EGQK 080650Z AUTO 24017KT 9999 FEW027/// 06/03 Q0976 RERA WSW (240°) 19.6mph 6°C 3°C
8/12/19 05:50 EGQK 080550Z AUTO 23016KT 9999 RA FEW030/// 07/03 Q0976 RA SW (230°) 18.4mph 7°C 3°C
8/12/19 04:50 EGQK 080450Z AUTO 23015KT 9999 FEW044/// 06/03 Q0976 SW (230°) 17.3mph 6°C 3°C
8/12/19 03:50 EGQK 080350Z AUTO 24017KT 9999 SCT042/// 07/04 Q0976 RERA WSW (240°) 19.6mph 7°C 4°C
8/12/19 02:50 EGQK 080250Z AUTO 25024G36KT 9999 FEW034/// 09/05 Q0975 RERA WSW (250°) 27.6mph 41.4mph 9°C 5°C
8/12/19 01:50 EGQK 080150Z AUTO 25024G34KT 9999 RA FEW038/// SCT044/// BKN080/// 09/07 Q0975 RA WSW (250°) 27.6mph 39.1mph 9°C 7°C
8/12/19 00:50 EGQK 080050Z AUTO 22016KT 3800 RA FEW024/// SCT050/// 12/09 Q0974 RA SW (220°) 18.4mph 12°C 9°C
7/12/19 23:50 EGQK 072350Z AUTO 22013KT 9999 FEW170/// 12/08 Q0975 SW (220°) 15.0mph 12°C 8°C
7/12/19 22:50 EGQK 072250Z AUTO 22015G25KT 9999 FEW050/// 12/08 Q0977 RERA SW (220°) 17.3mph 28.8mph 12°C 8°C
7/12/19 21:50 EGQK 072150Z AUTO 21015KT 9999 -RA BKN050/// 12/09 Q0979 -RA SSW (210°) 17.3mph 12°C 9°C
7/12/19 20:50 EGQK 072050Z AUTO 21016G26KT 9999 -RA OVC050/// 12/09 Q0981 -RA SSW (210°) 18.4mph 29.9mph 12°C 9°C
7/12/19 19:50 EGQK 071950Z AUTO 22014KT 9999 -RA BKN070/// 12/09 Q0983 -RA SW (220°) 16.1mph 12°C 9°C
7/12/19 18:50 EGQK 071850Z AUTO 20014KT 9999 BKN060/// BKN150/// 12/09 Q0986 RERA SSW (200°) 16.1mph 12°C 9°C
7/12/19 17:50 EGQK 071750Z AUTO 22011KT 9999 -RA OVC070/// 10/08 Q0988 -RA SW (220°) 12.7mph 10°C 8°C
7/12/19 16:50 EGQK 071650Z AUTO 22010KT 9999 BKN070/// BKN130/// 10/08 Q0990 RERA SW (220°) 11.5mph 10°C 8°C
7/12/19 15:50 EGQK 071550Z AUTO 19007KT 9999 -RA FEW050/// OVC090/// 10/07 Q0992 -RA S (190°) 8.1mph 10°C 7°C
7/12/19 14:50 EGQK 071450Z AUTO 18006KT 9999 -RADZ BKN050/// 09/07 Q0994 -RA -DZ S (180°) 6.9mph 9°C 7°C
7/12/19 13:50 EGQK 071350Z AUTO 17004KT 9999 -RA BKN048/// 09/06 Q0996 -RA S (170°) 4.6mph 9°C 6°C
7/12/19 12:50 EGQK 071250Z AUTO 09003KT 9999 -RA FEW042/// BKN050/// 07/06 Q0997 -RA E (90°) 3.5mph 7°C 6°C